Time;durP1;ratioP1;P1;durP2;ratioP2;P2;SDS_P1;SDS_P2;PMS_P1;PMS_P2;Temp;Humidity;BMP_temperature;BMP_pressure;BME280_temperature;BME280_humidity;BME280_pressure;Samples;Min_cycle;Max_cycle;Signal;HPM_P1;HPM_P2
2021/11/24 00:01:09;;;;;;;;;;;16.80;39.30;;;;;;8363671;28;19970;-47
2021/11/24 00:05:09;;;;;;;;;;;16.80;39.30;;;;;;8363684;28;19924;-47
2021/11/24 00:09:09;;;;;;;;;;;16.80;39.40;;;;;;8362550;28;20357;-46
2021/11/24 00:13:10;;;;;;;;;;;16.70;39.40;;;;;;8363492;28;19917;-47
2021/11/24 00:17:10;;;;;;;;;;;16.70;39.30;;;;;;8363077;28;19925;-46
2021/11/24 00:21:11;;;;;;;;;;;16.70;39.30;;;;;;8362763;28;20054;-46
2021/11/24 00:25:11;;;;;;;;;;;16.70;39.30;;;;;;8363253;28;19966;-46
2021/11/24 00:29:12;;;;;;;;;;;16.70;39.30;;;;;;8362993;28;20330;-48
2021/11/24 00:33:12;;;;;;;;;;;16.70;39.40;;;;;;8362603;28;20382;-48
2021/11/24 00:37:12;;;;;;;;;;;16.70;39.30;;;;;;8363173;28;19921;-47
2021/11/24 00:41:13;;;;;;;;;;;16.70;39.30;;;;;;8363227;28;19917;-50
2021/11/24 00:45:14;;;;;;;;;;;16.70;39.30;;;;;;8362361;28;19926;-48
2021/11/24 00:49:14;;;;;;;;;;;16.70;39.30;;;;;;8362926;28;20409;-47
2021/11/24 00:53:15;;;;;;;;;;;16.70;39.20;;;;;;8362662;28;19924;-46
2021/11/24 00:57:15;;;;;;;;;;;16.60;39.10;;;;;;8362727;28;19953;-46
2021/11/24 01:01:16;;;;;;;;;;;16.60;39.20;;;;;;8363033;28;19913;-47
2021/11/24 01:05:17;;;;;;;;;;;16.60;39.20;;;;;;8362591;28;19916;-46
2021/11/24 01:09:17;;;;;;;;;;;16.60;39.20;;;;;;8361952;28;19917;-46
2021/11/24 01:13:18;;;;;;;;;;;16.60;39.70;;;;;;8362402;28;19967;-51
2021/11/24 01:17:18;;;;;;;;;;;16.60;39.20;;;;;;8362371;28;20357;-48
2021/11/24 01:21:19;;;;;;;;;;;16.60;39.20;;;;;;8362597;28;19924;-45
2021/11/24 01:25:19;;;;;;;;;;;16.60;39.10;;;;;;8368299;28;19917;-45
2021/11/24 01:29:20;;;;;;;;;;;16.60;39.10;;;;;;8368063;28;19924;-45
2021/11/24 01:33:20;;;;;;;;;;;16.60;39.20;;;;;;8367575;28;20015;-46
2021/11/24 01:37:21;;;;;;;;;;;16.60;39.10;;;;;;8367942;28;20344;-45
2021/11/24 01:41:21;;;;;;;;;;;16.50;39.10;;;;;;8367877;28;19924;-46
2021/11/24 01:45:22;;;;;;;;;;;16.50;39.10;;;;;;8367646;28;19921;-46
2021/11/24 01:49:23;;;;;;;;;;;16.50;39.10;;;;;;8367395;28;19917;-45
2021/11/24 01:53:24;;;;;;;;;;;16.50;39.60;;;;;;8367132;28;20032;-46
2021/11/24 01:57:27;;;;;;;;;;;16.50;39.10;;;;;;8367413;28;19924;-46
2021/11/24 02:01:28;;;;;;;;;;;16.50;39.10;;;;;;8367495;28;19912;-46
2021/11/24 02:05:28;;;;;;;;;;;16.50;39.10;;;;;;8362693;28;19917;-46
2021/11/24 02:09:29;;;;;;;;;;;16.50;39.00;;;;;;8355271;28;20370;-47
2021/11/24 02:13:29;;;;;;;;;;;16.50;39.10;;;;;;8366612;28;19917;-46
2021/11/24 02:17:29;;;;;;;;;;;16.50;39.10;;;;;;8366447;28;19925;-47
2021/11/24 02:21:30;;;;;;;;;;;16.50;39.10;;;;;;8366391;28;19936;-46
2021/11/24 02:25:30;;;;;;;;;;;16.50;39.10;;;;;;8366551;28;19925;-46
2021/11/24 02:29:31;;;;;;;;;;;16.50;39.10;;;;;;8366255;28;19928;-46
2021/11/24 02:33:32;;;;;;;;;;;16.50;39.10;;;;;;8365179;28;20382;-46
2021/11/24 02:37:32;;;;;;;;;;;16.50;39.10;;;;;;8365746;28;19936;-46
2021/11/24 02:41:33;;;;;;;;;;;16.50;39.10;;;;;;8366163;28;19913;-47
2021/11/24 02:45:33;;;;;;;;;;;16.40;39.00;;;;;;8365151;28;20366;-49
2021/11/24 02:49:38;;;;;;;;;;;16.50;39.10;;;;;;8365548;28;19924;-47
2021/11/24 02:53:38;;;;;;;;;;;16.50;39.00;;;;;;8365194;28;20341;-45
2021/11/24 02:57:40;;;;;;;;;;;16.40;39.00;;;;;;8365053;28;19925;-46
2021/11/24 03:01:41;;;;;;;;;;;16.40;39.00;;;;;;8365331;28;19919;-46
2021/11/24 03:05:41;;;;;;;;;;;16.40;39.00;;;;;;8364556;28;19921;-47
2021/11/24 03:09:42;;;;;;;;;;;16.40;39.60;;;;;;8364776;28;20381;-46
2021/11/24 03:13:42;;;;;;;;;;;16.40;39.00;;;;;;8364737;28;19916;-47
2021/11/24 03:17:42;;;;;;;;;;;16.40;39.00;;;;;;8364284;28;20278;-46
2021/11/24 03:21:43;;;;;;;;;;;16.50;39.10;;;;;;8365046;28;19920;-46
2021/11/24 03:25:44;;;;;;;;;;;16.40;39.10;;;;;;8364563;28;19917;-46
2021/11/24 03:29:44;;;;;;;;;;;16.40;39.10;;;;;;8363785;28;19923;-46
2021/11/24 03:33:45;;;;;;;;;;;16.40;39.00;;;;;;8364268;28;20343;-46
2021/11/24 03:37:45;;;;;;;;;;;16.40;39.00;;;;;;8364162;28;19936;-46
2021/11/24 03:41:46;;;;;;;;;;;16.30;39.00;;;;;;8363940;28;20369;-46
2021/11/24 03:45:46;;;;;;;;;;;16.30;39.00;;;;;;8363395;28;19917;-46
2021/11/24 03:49:47;;;;;;;;;;;16.30;39.00;;;;;;8363676;28;19917;-47
2021/11/24 03:53:48;;;;;;;;;;;16.30;39.00;;;;;;8363188;28;19917;-46
2021/11/24 03:57:49;;;;;;;;;;;16.30;39.00;;;;;;8363847;28;19925;-46
2021/11/24 04:01:49;;;;;;;;;;;16.30;38.90;;;;;;8363732;28;20369;-46
2021/11/24 04:05:52;;;;;;;;;;;16.30;39.00;;;;;;8362925;28;20003;-46
2021/11/24 04:09:53;;;;;;;;;;;16.30;39.00;;;;;;8363523;28;19923;-46
2021/11/24 04:13:53;;;;;;;;;;;16.30;39.00;;;;;;8363098;28;19917;-46
2021/11/24 04:17:54;;;;;;;;;;;16.30;39.00;;;;;;8362636;28;20020;-46
2021/11/24 04:21:54;;;;;;;;;;;16.30;39.00;;;;;;8363343;28;20008;-47
2021/11/24 04:25:55;;;;;;;;;;;16.30;39.00;;;;;;8363075;28;20401;-47
2021/11/24 04:29:55;;;;;;;;;;;16.30;39.10;;;;;;8362621;28;20386;-49
2021/11/24 04:33:56;;;;;;;;;;;16.30;39.10;;;;;;8363259;28;19913;-47
2021/11/24 04:37:56;;;;;;;;;;;16.30;39.10;;;;;;8363043;28;19929;-49
2021/11/24 04:41:57;;;;;;;;;;;16.30;39.10;;;;;;8362522;28;19917;-47
2021/11/24 04:46:00;;;;;;;;;;;16.30;39.20;;;;;;8363086;28;19924;-46
2021/11/24 04:50:00;;;;;;;;;;;16.30;39.10;;;;;;8362636;28;20423;-46
2021/11/24 04:54:01;;;;;;;;;;;16.30;39.00;;;;;;8362085;28;19917;-47
2021/11/24 04:58:01;;;;;;;;;;;16.30;39.10;;;;;;8367299;28;19929;-47
2021/11/24 05:02:02;;;;;;;;;;;16.30;39.10;;;;;;8368401;28;19970;-47
2021/11/24 05:06:02;;;;;;;;;;;16.30;39.10;;;;;;8368354;28;19917;-47
2021/11/24 05:10:04;;;;;;;;;;;16.30;39.00;;;;;;8368891;28;19924;-47
2021/11/24 05:14:06;;;;;;;;;;;16.30;39.00;;;;;;8368820;28;20338;-48
2021/11/24 05:18:08;;;;;;;;;;;16.30;39.00;;;;;;8368076;28;19924;-49
2021/11/24 05:22:10;;;;;;;;;;;16.30;39.00;;;;;;8368874;28;19917;-47
2021/11/24 05:26:11;;;;;;;;;;;16.30;39.00;;;;;;8368435;28;20007;-47
2021/11/24 05:30:12;;;;;;;;;;;16.30;39.00;;;;;;8367697;28;19928;-46
2021/11/24 05:34:12;;;;;;;;;;;16.30;39.00;;;;;;8368125;28;19916;-46
2021/11/24 05:38:12;;;;;;;;;;;16.30;39.00;;;;;;8368126;28;19967;-47
2021/11/24 05:42:13;;;;;;;;;;;16.30;39.00;;;;;;8367308;28;19917;-46
2021/11/24 05:46:27;;;;;;;;;;;16.30;39.00;;;;;;8367511;28;19917;-47
2021/11/24 05:50:27;;;;;;;;;;;16.30;39.00;;;;;;8366213;28;19920;-47
2021/11/24 05:54:28;;;;;;;;;;;16.30;39.00;;;;;;8366747;28;20003;-47
2021/11/24 05:58:28;;;;;;;;;;;16.30;39.00;;;;;;8367053;28;20390;-46
2021/11/24 06:02:29;;;;;;;;;;;16.30;39.00;;;;;;8367276;28;20332;-47
2021/11/24 06:06:30;;;;;;;;;;;16.30;39.00;;;;;;8367442;28;19924;-47
2021/11/24 06:10:30;;;;;;;;;;;16.30;39.00;;;;;;8366041;28;19924;-47
2021/11/24 06:14:31;;;;;;;;;;;16.30;39.00;;;;;;8366674;28;19920;-47
2021/11/24 06:18:31;;;;;;;;;;;16.30;38.90;;;;;;8366029;28;20011;-46
2021/11/24 06:22:32;;;;;;;;;;;16.30;39.00;;;;;;8366615;28;19978;-46
2021/11/24 06:26:32;;;;;;;;;;;16.30;39.00;;;;;;8366405;28;19943;-48
2021/11/24 06:30:33;;;;;;;;;;;16.20;38.90;;;;;;8365740;28;19916;-46
2021/11/24 06:34:33;;;;;;;;;;;16.30;39.00;;;;;;8366307;28;19924;-47
2021/11/24 06:38:34;;;;;;;;;;;16.20;39.00;;;;;;8365984;28;19925;-47
2021/11/24 06:42:34;;;;;;;;;;;16.20;38.90;;;;;;8365478;28;20285;-47
2021/11/24 06:46:35;;;;;;;;;;;16.20;39.00;;;;;;8365724;28;19917;-46
2021/11/24 06:50:36;;;;;;;;;;;16.20;39.00;;;;;;8365065;28;20387;-47
2021/11/24 06:54:36;;;;;;;;;;;16.20;39.00;;;;;;8365274;28;19994;-46
2021/11/24 06:58:37;;;;;;;;;;;16.20;38.90;;;;;;8365910;28;20298;-46
2021/11/24 07:02:37;;;;;;;;;;;16.20;38.90;;;;;;8364701;28;19924;-46
2021/11/24 07:06:38;;;;;;;;;;;16.20;38.90;;;;;;8365142;28;19917;-46
2021/11/24 07:10:38;;;;;;;;;;;16.20;38.90;;;;;;8365005;28;20393;-46
2021/11/24 07:14:39;;;;;;;;;;;16.20;38.90;;;;;;8364340;28;20007;-46
2021/11/24 07:18:39;;;;;;;;;;;16.20;38.90;;;;;;8364650;28;19925;-48
2021/11/24 07:22:40;;;;;;;;;;;16.20;38.90;;;;;;8364154;28;19917;-48
2021/11/24 07:26:40;;;;;;;;;;;16.20;38.90;;;;;;8364233;28;19917;-47
2021/11/24 07:30:41;;;;;;;;;;;16.20;38.90;;;;;;8364282;28;19917;-48
2021/11/24 07:34:41;;;;;;;;;;;16.20;38.90;;;;;;8364269;28;19927;-47
2021/11/24 07:38:42;;;;;;;;;;;16.20;39.40;;;;;;8363810;28;20015;-47
2021/11/24 07:42:43;;;;;;;;;;;16.20;38.90;;;;;;8364151;28;20445;-48
2021/11/24 07:46:43;;;;;;;;;;;16.20;38.90;;;;;;8363990;28;19971;-46
2021/11/24 07:50:44;;;;;;;;;;;16.20;38.90;;;;;;8362742;28;19917;-47
2021/11/24 07:54:44;;;;;;;;;;;16.20;38.90;;;;;;8363782;28;19917;-46
2021/11/24 07:58:45;;;;;;;;;;;16.20;38.90;;;;;;8363965;28;20003;-46
2021/11/24 08:02:45;;;;;;;;;;;16.20;38.90;;;;;;8362994;28;19927;-46
2021/11/24 08:06:47;;;;;;;;;;;16.20;38.90;;;;;;8350691;28;22259;-47
2021/11/24 08:10:48;;;;;;;;;;;16.20;38.80;;;;;;8363264;28;20278;-47
2021/11/24 08:14:48;;;;;;;;;;;16.20;38.80;;;;;;8362727;28;19916;-48
2021/11/24 08:18:49;;;;;;;;;;;16.20;38.80;;;;;;8363302;28;20439;-46
2021/11/24 08:22:49;;;;;;;;;;;16.20;38.80;;;;;;8363202;28;19916;-46
2021/11/24 08:26:50;;;;;;;;;;;16.20;38.80;;;;;;8362891;28;20392;-47
2021/11/24 08:30:51;;;;;;;;;;;16.20;38.80;;;;;;8364394;28;19917;-47
2021/11/24 08:34:51;;;;;;;;;;;16.20;38.80;;;;;;8369810;28;20015;-47
2021/11/24 08:38:52;;;;;;;;;;;16.20;38.80;;;;;;8369420;28;19936;-48
2021/11/24 08:42:52;;;;;;;;;;;16.20;38.80;;;;;;8369910;28;20012;-47
2021/11/24 08:46:52;;;;;;;;;;;16.20;38.80;;;;;;8369210;28;19924;-48
2021/11/24 08:50:53;;;;;;;;;;;16.20;38.80;;;;;;8368760;28;19942;-48
2021/11/24 08:54:54;;;;;;;;;;;16.20;39.40;;;;;;8369344;28;21465;-46
2021/11/24 08:58:54;;;;;;;;;;;16.20;38.90;;;;;;8369309;28;19925;-49
2021/11/24 09:02:54;;;;;;;;;;;16.20;38.80;;;;;;8368345;28;20421;-46
2021/11/24 09:06:55;;;;;;;;;;;16.20;38.80;;;;;;8368835;28;20074;-46
2021/11/24 09:10:55;;;;;;;;;;;16.20;38.90;;;;;;8368593;28;19917;-46
2021/11/24 09:14:56;;;;;;;;;;;16.20;38.90;;;;;;8368112;28;19913;-49
2021/11/24 09:18:57;;;;;;;;;;;16.20;38.90;;;;;;8368616;28;19921;-52
2021/11/24 09:22:57;;;;;;;;;;;16.20;38.80;;;;;;8368351;28;19923;-47
2021/11/24 09:27:02;;;;;;;;;;;16.30;38.90;;;;;;8367842;28;19924;-50
2021/11/24 09:31:03;;;;;;;;;;;16.20;38.80;;;;;;8368439;28;20389;-48
2021/11/24 09:35:03;;;;;;;;;;;16.20;38.80;;;;;;8367867;28;20325;-47
2021/11/24 09:39:04;;;;;;;;;;;16.30;38.90;;;;;;8367495;28;19979;-47
2021/11/24 09:43:06;;;;;;;;;;;16.30;38.80;;;;;;8366562;28;20444;-47
2021/11/24 09:47:07;;;;;;;;;;;16.30;38.90;;;;;;8367525;28;19919;-47
2021/11/24 09:51:07;;;;;;;;;;;16.30;38.80;;;;;;8366574;28;19916;-48
2021/11/24 09:55:08;;;;;;;;;;;16.30;38.80;;;;;;8367177;28;19920;-51
2021/11/24 09:59:09;;;;;;;;;;;16.30;38.80;;;;;;8367326;28;19925;-46
2021/11/24 10:03:10;;;;;;;;;;;16.30;38.80;;;;;;8366415;28;20008;-47
2021/11/24 10:07:11;;;;;;;;;;;16.30;38.80;;;;;;8367135;28;19979;-48
2021/11/24 10:11:12;;;;;;;;;;;16.30;38.80;;;;;;8366613;28;19940;-47
2021/11/24 10:15:32;;;;;;;;;;;16.30;38.90;;;;;;8365984;28;19920;-47
2021/11/24 10:19:33;;;;;;;;;;;16.30;38.80;;;;;;8366768;28;19936;-47
2021/11/24 10:23:38;;;;;;;;;;;16.30;38.80;;;;;;8366269;28;20007;-50
2021/11/24 10:27:40;;;;;;;;;;;16.30;38.80;;;;;;8365710;28;19971;-48
2021/11/24 10:31:42;;;;;;;;;;;16.30;38.80;;;;;;8366455;28;19913;-49
2021/11/24 10:35:43;;;;;;;;;;;16.30;38.90;;;;;;8365444;28;19917;-47
2021/11/24 10:39:45;;;;;;;;;;;16.30;38.80;;;;;;8365949;28;19928;-48
2021/11/24 10:43:46;;;;;;;;;;;16.30;38.80;;;;;;8365832;28;19916;-50
2021/11/24 10:47:49;;;;;;;;;;;16.30;38.80;;;;;;8365164;28;19913;-49
2021/11/24 10:51:50;;;;;;;;;;;16.30;38.80;;;;;;8365480;28;19962;-49
2021/11/24 10:55:51;;;;;;;;;;;16.30;38.80;;;;;;8365474;28;20011;-48
2021/11/24 10:59:57;;;;;;;;;;;16.30;38.80;;;;;;8364967;28;20382;-47
2021/11/24 11:04:05;;;;;;;;;;;16.30;38.80;;;;;;8355711;28;19924;-47
2021/11/24 11:08:06;;;;;;;;;;;16.30;38.90;;;;;;8354079;28;20512;-46
2021/11/24 11:12:08;;;;;;;;;;;16.30;38.80;;;;;;8364591;28;19920;-46
2021/11/24 11:16:09;;;;;;;;;;;16.30;39.40;;;;;;8364764;28;19916;-47
2021/11/24 11:20:10;;;;;;;;;;;16.30;38.80;;;;;;8364933;28;19924;-47
2021/11/24 11:24:11;;;;;;;;;;;16.30;38.80;;;;;;8364239;28;19923;-48
2021/11/24 11:28:11;;;;;;;;;;;16.30;38.80;;;;;;8364667;28;20334;-48
2021/11/24 11:32:12;;;;;;;;;;;16.30;38.80;;;;;;8364343;28;19925;-48
2021/11/24 11:36:13;;;;;;;;;;;16.30;38.90;;;;;;8363675;28;19921;-48
2021/11/24 11:40:15;;;;;;;;;;;16.30;38.80;;;;;;8364219;28;19921;-48
2021/11/24 11:44:18;;;;;;;;;;;16.30;38.80;;;;;;8364043;28;19917;-47
2021/11/24 11:48:28;;;;;;;;;;;16.30;38.80;;;;;;8363470;28;20346;-47
2021/11/24 11:52:28;;;;;;;;;;;16.30;38.80;;;;;;8363823;28;19978;-49
2021/11/24 11:56:30;;;;;;;;;;;16.30;38.80;;;;;;8363789;28;20141;-48
2021/11/24 12:00:31;;;;;;;;;;;16.30;38.80;;;;;;8363721;28;20362;-46
2021/11/24 12:04:50;;;;;;;;;;;16.30;38.80;;;;;;8363533;28;19920;-49
2021/11/24 12:09:05;;;;;;;;;;;16.30;38.80;;;;;;8362700;28;19955;-51
2021/11/24 12:13:06;;;;;;;;;;;16.30;38.80;;;;;;8363169;28;19917;-48
2021/11/24 12:17:25;;;;;;;;;;;16.30;38.80;;;;;;8363208;28;20020;-47
2021/11/24 12:21:26;;;;;;;;;;;16.30;38.90;;;;;;8362741;28;20281;-48
2021/11/24 12:25:26;;;;;;;;;;;16.30;38.80;;;;;;8363358;28;19912;-49
2021/11/24 12:29:46;;;;;;;;;;;16.30;38.90;;;;;;8363141;28;20004;-48
2021/11/24 12:33:53;;;;;;;;;;;16.30;38.80;;;;;;8362592;28;19917;-47
2021/11/24 12:37:57;;;;;;;;;;;16.30;38.90;;;;;;8367474;28;19932;-47
2021/11/24 12:42:01;;;;;;;;;;;16.30;38.80;;;;;;8362602;28;20369;-48
2021/11/24 12:46:14;;;;;;;;;;;16.30;38.80;;;;;;8362988;28;19924;-51
2021/11/24 12:50:15;;;;;;;;;;;16.40;38.90;;;;;;8363402;28;19952;-47
2021/11/24 12:54:23;;;;;;;;;;;16.30;38.80;;;;;;8362171;28;19920;-48
2021/11/24 12:58:25;;;;;;;;;;;16.40;38.90;;;;;;8362380;28;19929;-46
2021/11/24 13:02:25;;;;;;;;;;;16.30;38.80;;;;;;8363282;28;19913;-47
2021/11/24 13:06:26;;;;;;;;;;;16.30;38.80;;;;;;8362160;28;19917;-47
2021/11/24 13:10:27;;;;;;;;;;;16.40;38.80;;;;;;8362529;28;19917;-46
2021/11/24 13:14:29;;;;;;;;;;;16.30;38.80;;;;;;8362345;28;19917;-48
2021/11/24 13:18:30;;;;;;;;;;;16.40;38.80;;;;;;8365254;28;19967;-47
2021/11/24 13:22:30;;;;;;;;;;;16.40;38.80;;;;;;8366980;28;19917;-47
2021/11/24 13:26:31;;;;;;;;;;;16.30;38.80;;;;;;8368210;28;19922;-48
2021/11/24 13:30:34;;;;;;;;;;;16.30;38.80;;;;;;8367951;28;19998;-48
2021/11/24 13:34:35;;;;;;;;;;;16.30;38.80;;;;;;8368215;28;20007;-48
2021/11/24 13:38:37;;;;;;;;;;;16.30;38.80;;;;;;8367500;28;19944;-48
2021/11/24 13:42:40;;;;;;;;;;;16.40;38.90;;;;;;8367883;28;19945;-48
2021/11/24 13:46:40;;;;;;;;;;;16.40;38.90;;;;;;8367695;28;19958;-48
2021/11/24 13:50:41;;;;;;;;;;;16.40;38.90;;;;;;8367298;28;19916;-47
2021/11/24 13:54:45;;;;;;;;;;;16.40;38.90;;;;;;8367180;28;19917;-48
2021/11/24 13:59:16;;;;;;;;;;;16.40;38.90;;;;;;8367198;28;19928;-48
2021/11/24 14:03:26;;;;;;;;;;;16.40;38.90;;;;;;8357606;28;20388;-46
2021/11/24 14:07:35;;;;;;;;;;;16.40;38.90;;;;;;8359659;28;20063;-47
2021/11/24 14:11:35;;;;;;;;;;;16.30;38.80;;;;;;8367181;28;19919;-46
2021/11/24 14:15:36;;;;;;;;;;;16.30;38.90;;;;;;8366839;28;19917;-47
2021/11/24 14:19:37;;;;;;;;;;;16.30;38.90;;;;;;8366466;28;19971;-47
2021/11/24 14:23:37;;;;;;;;;;;16.30;38.90;;;;;;8366167;28;19924;-49
2021/11/24 14:27:38;;;;;;;;;;;16.30;38.90;;;;;;8366442;28;20296;-50
2021/11/24 14:31:39;;;;;;;;;;;16.40;38.90;;;;;;8365994;28;19912;-47
2021/11/24 14:35:39;;;;;;;;;;;16.40;38.90;;;;;;8365553;28;19917;-51
2021/11/24 14:39:40;;;;;;;;;;;16.30;38.80;;;;;;8366221;28;19937;-48
2021/11/24 14:43:40;;;;;;;;;;;16.40;38.90;;;;;;8365872;28;19917;-48
2021/11/24 14:47:41;;;;;;;;;;;16.40;38.90;;;;;;8365301;28;19971;-48
2021/11/24 14:51:42;;;;;;;;;;;16.40;38.90;;;;;;8366196;28;20379;-48
2021/11/24 14:55:42;;;;;;;;;;;16.40;38.90;;;;;;8365651;28;19928;-49
2021/11/24 14:59:43;;;;;;;;;;;16.30;38.80;;;;;;8364760;28;19928;-48
2021/11/24 15:03:43;;;;;;;;;;;16.40;38.90;;;;;;8365227;28;19923;-48
2021/11/24 15:07:44;;;;;;;;;;;16.30;38.80;;;;;;8364805;28;19917;-48
2021/11/24 15:11:45;;;;;;;;;;;16.30;38.80;;;;;;8364625;28;19919;-47
2021/11/24 15:15:46;;;;;;;;;;;16.30;38.80;;;;;;8364861;28;19917;-47
2021/11/24 15:19:47;;;;;;;;;;;16.40;38.90;;;;;;8364496;28;19932;-46
2021/11/24 15:23:49;;;;;;;;;;;16.30;39.40;;;;;;8364266;28;19943;-49
2021/11/24 15:27:49;;;;;;;;;;;16.40;38.90;;;;;;8364831;28;19921;-47
2021/11/24 15:31:51;;;;;;;;;;;16.30;38.80;;;;;;8364580;28;20382;-49
2021/11/24 15:35:53;;;;;;;;;;;16.30;38.90;;;;;;8363739;28;19923;-48
2021/11/24 15:39:53;;;;;;;;;;;16.30;38.80;;;;;;8363354;28;19932;-48
2021/11/24 15:43:54;;;;;;;;;;;16.30;38.80;;;;;;8363698;28;19921;-47
2021/11/24 15:47:55;;;;;;;;;;;16.40;38.90;;;;;;8363371;28;19925;-47
2021/11/24 15:51:58;;;;;;;;;;;16.30;38.80;;;;;;8364643;28;19983;-48
2021/11/24 15:55:58;;;;;;;;;;;16.30;38.80;;;;;;8364085;28;19925;-47
2021/11/24 15:59:59;;;;;;;;;;;16.30;38.80;;;;;;8363077;28;20970;-49
2021/11/24 16:03:59;;;;;;;;;;;16.30;38.80;;;;;;8363415;28;19999;-47
2021/11/24 16:08:00;;;;;;;;;;;16.30;38.80;;;;;;8363527;28;19916;-48
2021/11/24 16:12:01;;;;;;;;;;;16.30;38.80;;;;;;8363463;28;19919;-48
2021/11/24 16:16:01;;;;;;;;;;;16.30;38.80;;;;;;8363426;28;20278;-48
2021/11/24 16:20:02;;;;;;;;;;;16.40;38.90;;;;;;8363824;28;19947;-48
2021/11/24 16:24:03;;;;;;;;;;;16.30;38.90;;;;;;8362767;28;19917;-48
2021/11/24 16:28:03;;;;;;;;;;;16.30;38.80;;;;;;8363223;28;19917;-46
2021/11/24 16:32:04;;;;;;;;;;;16.30;38.90;;;;;;8363274;28;19951;-46
2021/11/24 16:36:04;;;;;;;;;;;16.40;38.90;;;;;;8359983;28;20269;-45
2021/11/24 16:40:06;;;;;;;;;;;16.30;39.10;;;;;;8357962;28;19983;-49
2021/11/24 16:44:07;;;;;;;;;;;16.30;38.80;;;;;;8361827;28;19917;-48
2021/11/24 16:48:08;;;;;;;;;;;16.30;38.90;;;;;;8362389;28;19917;-47
2021/11/24 16:52:08;;;;;;;;;;;16.30;38.90;;;;;;8364780;28;20316;-46
2021/11/24 16:56:09;;;;;;;;;;;16.30;38.90;;;;;;8368951;28;19920;-47
2021/11/24 17:00:11;;;;;;;;;;;16.30;38.90;;;;;;8368229;28;19932;-47
2021/11/24 17:04:12;;;;;;;;;;;16.30;38.80;;;;;;8368948;28;19928;-50
2021/11/24 17:08:12;;;;;;;;;;;16.30;38.80;;;;;;8368879;28;19925;-46
2021/11/24 17:12:13;;;;;;;;;;;16.30;38.90;;;;;;8341280;28;19925;-47
2021/11/24 17:16:13;;;;;;;;;;;16.30;38.80;;;;;;8363123;28;19939;-46
2021/11/24 17:20:14;;;;;;;;;;;16.30;38.80;;;;;;8368237;28;19925;-48
2021/11/24 17:24:14;;;;;;;;;;;16.30;38.80;;;;;;8367859;28;19921;-49
2021/11/24 17:28:15;;;;;;;;;;;16.30;38.80;;;;;;8368358;28;20314;-51
2021/11/24 17:32:16;;;;;;;;;;;16.30;38.80;;;;;;8368151;28;20274;-48
2021/11/24 17:36:16;;;;;;;;;;;16.30;38.90;;;;;;8367483;28;19917;-48
2021/11/24 17:40:18;;;;;;;;;;;16.30;38.80;;;;;;8367582;28;20309;-48
2021/11/24 17:44:19;;;;;;;;;;;16.30;38.90;;;;;;8367827;28;20004;-48
2021/11/24 17:48:21;;;;;;;;;;;16.30;38.80;;;;;;8367070;28;20358;-46
2021/11/24 17:52:22;;;;;;;;;;;16.30;38.80;;;;;;8367575;28;19913;-47
2021/11/24 17:56:22;;;;;;;;;;;16.30;39.40;;;;;;8367713;28;19925;-47
2021/11/24 18:00:24;;;;;;;;;;;16.30;38.90;;;;;;8366545;28;19925;-45
2021/11/24 18:04:24;;;;;;;;;;;16.30;38.80;;;;;;8365902;28;20007;-46
2021/11/24 18:08:25;;;;;;;;;;;16.30;38.80;;;;;;8366952;28;19912;-47
2021/11/24 18:12:25;;;;;;;;;;;16.30;38.80;;;;;;8373423;28;20345;-49
2021/11/24 18:16:26;;;;;;;;;;;16.30;38.80;;;;;;8371831;28;19924;-49
2021/11/24 18:20:27;;;;;;;;;;;16.30;38.90;;;;;;8366161;28;19925;-48
2021/11/24 18:24:28;;;;;;;;;;;16.30;38.80;;;;;;8365729;28;20000;-48
2021/11/24 18:28:28;;;;;;;;;;;16.30;38.80;;;;;;8365995;28;19963;-49
2021/11/24 18:32:29;;;;;;;;;;;16.30;38.90;;;;;;8366052;28;20369;-48
2021/11/24 18:36:29;;;;;;;;;;;16.30;38.90;;;;;;8365421;28;19921;-49
2021/11/24 18:40:30;;;;;;;;;;;16.30;38.90;;;;;;8365211;28;20360;-48
2021/11/24 18:44:31;;;;;;;;;;;16.30;38.90;;;;;;8365812;28;19917;-50
2021/11/24 18:48:33;;;;;;;;;;;16.30;38.90;;;;;;8361283;28;20012;-48
2021/11/24 18:52:34;;;;;;;;;;;16.30;38.80;;;;;;8365715;28;19956;-47
2021/11/24 18:56:34;;;;;;;;;;;16.30;38.80;;;;;;8365782;28;20379;-48
2021/11/24 19:00:35;;;;;;;;;;;16.30;38.80;;;;;;8364617;28;20309;-47
2021/11/24 19:04:36;;;;;;;;;;;16.30;38.80;;;;;;8365100;28;19952;-48
2021/11/24 19:08:37;;;;;;;;;;;16.30;38.90;;;;;;8364768;28;19912;-47
2021/11/24 19:12:38;;;;;;;;;;;16.30;38.90;;;;;;8364376;28;19923;-48
2021/11/24 19:16:38;;;;;;;;;;;16.30;38.80;;;;;;8364415;28;19924;-51
2021/11/24 19:20:39;;;;;;;;;;;16.30;38.80;;;;;;8363972;28;20282;-49
2021/11/24 19:24:39;;;;;;;;;;;16.30;38.80;;;;;;8364517;28;20262;-52
2021/11/24 19:28:41;;;;;;;;;;;16.30;38.90;;;;;;8364628;28;19919;-50
2021/11/24 19:32:42;;;;;;;;;;;16.30;38.80;;;;;;8363816;28;19967;-49
2021/11/24 19:36:43;;;;;;;;;;;16.30;38.80;;;;;;8364165;28;20409;-50
2021/11/24 19:40:43;;;;;;;;;;;16.30;38.80;;;;;;8363844;28;19924;-49
2021/11/24 19:44:43;;;;;;;;;;;16.30;38.80;;;;;;8363494;28;19924;-48
2021/11/24 19:48:44;;;;;;;;;;;16.30;38.80;;;;;;8363942;28;19979;-48
2021/11/24 19:52:45;;;;;;;;;;;16.30;38.80;;;;;;8363900;28;19916;-48
2021/11/24 19:56:45;;;;;;;;;;;16.30;38.80;;;;;;8363809;28;19920;-47
2021/11/24 20:00:46;;;;;;;;;;;16.30;38.80;;;;;;8363807;28;19929;-49
2021/11/24 20:04:46;;;;;;;;;;;16.30;38.80;;;;;;8363152;28;19924;-48
2021/11/24 20:08:47;;;;;;;;;;;16.30;38.80;;;;;;8360240;28;20373;-49
2021/11/24 20:12:49;;;;;;;;;;;16.30;38.80;;;;;;8362016;28;19917;-49
2021/11/24 20:16:50;;;;;;;;;;;16.30;38.90;;;;;;8363384;28;19923;-48
2021/11/24 20:20:50;;;;;;;;;;;16.30;38.90;;;;;;8362310;28;20335;-47
2021/11/24 20:24:51;;;;;;;;;;;16.30;38.90;;;;;;8363121;28;19917;-47
2021/11/24 20:28:52;;;;;;;;;;;16.30;38.80;;;;;;8371530;28;19913;-47
2021/11/24 20:32:53;;;;;;;;;;;16.30;38.90;;;;;;8373616;28;20336;-48
2021/11/24 20:36:53;;;;;;;;;;;16.30;38.90;;;;;;8373846;28;19921;-51
2021/11/24 20:40:54;;;;;;;;;;;16.30;38.90;;;;;;8373980;28;19974;-50
2021/11/24 20:44:54;;;;;;;;;;;16.30;38.90;;;;;;8373424;28;19925;-49
2021/11/24 20:48:55;;;;;;;;;;;16.30;38.90;;;;;;8374046;28;19912;-47
2021/11/24 20:52:56;;;;;;;;;;;16.30;38.90;;;;;;8374006;28;19987;-48
2021/11/24 20:56:56;;;;;;;;;;;16.30;38.90;;;;;;8373334;28;20488;-49
2021/11/24 21:00:57;;;;;;;;;;;16.30;38.90;;;;;;8373439;28;20019;-49
2021/11/24 21:04:57;;;;;;;;;;;16.30;38.80;;;;;;8373797;28;19912;-50
2021/11/24 21:08:58;;;;;;;;;;;16.40;38.90;;;;;;8373363;28;19917;-51
2021/11/24 21:12:58;;;;;;;;;;;16.30;38.90;;;;;;8373435;28;19917;-47
2021/11/24 21:16:59;;;;;;;;;;;16.30;38.90;;;;;;8373600;28;20011;-48
2021/11/24 21:21:03;;;;;;;;;;;16.30;38.90;;;;;;8372877;28;20058;-50
2021/11/24 21:25:05;;;;;;;;;;;16.40;38.90;;;;;;8373448;28;19917;-50
2021/11/24 21:29:06;;;;;;;;;;;16.30;38.90;;;;;;8373552;28;19971;-49
2021/11/24 21:33:08;;;;;;;;;;;16.30;38.90;;;;;;8372734;28;19916;-51
2021/11/24 21:37:09;;;;;;;;;;;16.40;38.90;;;;;;8373511;28;20297;-48
2021/11/24 21:41:10;;;;;;;;;;;16.40;38.90;;;;;;8367952;28;19929;-51
2021/11/24 21:45:12;;;;;;;;;;;16.30;38.90;;;;;;8367319;28;19920;-49
2021/11/24 21:49:12;;;;;;;;;;;16.40;39.00;;;;;;8368165;28;19913;-50
2021/11/24 21:53:13;;;;;;;;;;;16.40;39.00;;;;;;8367536;28;19932;-47
2021/11/24 21:57:13;;;;;;;;;;;16.30;38.90;;;;;;8367114;28;19928;-49
2021/11/24 22:01:14;;;;;;;;;;;16.30;38.90;;;;;;8367087;28;19920;-49
2021/11/24 22:05:14;;;;;;;;;;;16.40;39.00;;;;;;8367328;28;19920;-48
2021/11/24 22:13:35;;;;;;;;;;;16.30;38.90;;;;;;8372704;28;19986;-47
2021/11/24 22:17:36;;;;;;;;;;;16.30;39.00;;;;;;8366256;28;19913;-47
2021/11/24 22:21:36;;;;;;;;;;;16.30;39.00;;;;;;8366685;28;19923;-48
2021/11/24 22:25:37;;;;;;;;;;;16.30;39.00;;;;;;8366566;28;19913;-49
2021/11/24 22:29:37;;;;;;;;;;;16.30;39.00;;;;;;8366141;28;19917;-48
2021/11/24 22:33:38;;;;;;;;;;;16.30;38.90;;;;;;8366060;28;20388;-47
2021/11/24 22:37:39;;;;;;;;;;;16.30;38.90;;;;;;8366158;28;19939;-48
2021/11/24 22:41:42;;;;;;;;;;;16.30;39.00;;;;;;8365628;28;19927;-48
2021/11/24 22:45:46;;;;;;;;;;;16.30;39.00;;;;;;8366042;28;20090;-47
2021/11/24 22:49:46;;;;;;;;;;;16.30;39.00;;;;;;8365403;28;19917;-48
2021/11/24 22:53:46;;;;;;;;;;;16.30;39.00;;;;;;8365241;28;19924;-48
2021/11/24 22:57:47;;;;;;;;;;;16.30;39.50;;;;;;8365727;28;19924;-48
2021/11/24 23:01:49;;;;;;;;;;;16.30;38.90;;;;;;8364730;28;19913;-48
2021/11/24 23:05:49;;;;;;;;;;;16.30;39.00;;;;;;8364753;28;20326;-47
2021/11/24 23:09:52;;;;;;;;;;;16.30;39.00;;;;;;8364435;28;19913;-47
2021/11/24 23:13:52;;;;;;;;;;;16.30;39.00;;;;;;8365123;28;19917;-47
2021/11/24 23:17:53;;;;;;;;;;;16.30;39.00;;;;;;8364508;28;19916;-47
2021/11/24 23:21:53;;;;;;;;;;;16.30;39.00;;;;;;8364724;28;20305;-48
2021/11/24 23:25:53;;;;;;;;;;;16.20;38.90;;;;;;8364713;28;19923;-47